Time;durP1;ratioP1;P1;durP2;ratioP2;P2;SDS_P1;SDS_P2;PMS_P1;PMS_P2;Temp;Humidity;BMP_temperature;BMP_pressure;BME280_temperature;BME280_humidity;BME280_pressure;Samples;Min_cycle;Max_cycle;Signal;HPM_P1;HPM_P2
2022/08/10 00:01:15;;;;;;;1999.90;999.90;;;15.70;99.90;;;;;;5094819;28;20048;-60
2022/08/10 00:03:40;;;;;;;1999.90;999.90;;;15.70;99.90;;;;;;5081687;28;20086;-60
2022/08/10 00:06:06;;;;;;;1999.90;999.90;;;15.70;99.90;;;;;;5078905;28;20105;-60
2022/08/10 00:08:32;;;;;;;1999.90;999.90;;;15.70;99.90;;;;;;5094498;28;20044;-60
2022/08/10 00:10:58;;;;;;;1999.90;999.90;;;15.60;99.90;;;;;;5075634;28;20105;-60
2022/08/10 00:13:25;;;;;;;1999.90;999.90;;;15.60;99.90;;;;;;5094724;28;20051;-60
2022/08/10 00:15:51;;;;;;;1999.90;999.90;;;15.50;99.90;;;;;;5081734;28;20041;-60
2022/08/10 00:18:17;;;;;;;1999.90;999.90;;;15.50;99.90;;;;;;5081088;28;20482;-60
2022/08/10 00:20:43;;;;;;;1999.90;999.90;;;15.40;99.90;;;;;;5094591;28;20503;-60
2022/08/10 00:23:09;;;;;;;1999.90;999.90;;;15.40;99.90;;;;;;5094531;28;20058;-60
2022/08/10 00:25:35;;;;;;;1999.90;999.90;;;15.30;99.90;;;;;;5093348;28;20048;-60
2022/08/10 00:28:01;;;;;;;1999.90;999.90;;;15.30;99.90;;;;;;5059501;28;20117;-60
2022/08/10 00:30:27;;;;;;;1999.90;999.90;;;15.30;99.90;;;;;;5094539;28;20156;-60
2022/08/10 00:32:53;;;;;;;1999.90;999.90;;;15.30;99.90;;;;;;5085673;28;20055;-60
2022/08/10 00:35:19;;;;;;;1999.90;999.90;;;15.30;99.90;;;;;;5074275;28;20056;-60
2022/08/10 00:37:45;;;;;;;1999.90;999.90;;;15.30;99.90;;;;;;5056219;28;20045;-60
2022/08/10 00:40:11;;;;;;;1999.90;999.90;;;15.30;99.90;;;;;;5072507;28;20055;-61
2022/08/10 00:42:37;;;;;;;1999.90;999.90;;;15.30;99.90;;;;;;5070238;28;20044;-60
2022/08/10 00:45:03;;;;;;;1999.90;999.90;;;15.20;99.90;;;;;;5076144;28;20449;-60
2022/08/10 00:47:29;;;;;;;1999.90;999.90;;;15.20;99.90;;;;;;5093080;28;20371;-60
2022/08/10 00:49:56;;;;;;;1999.90;999.90;;;15.20;99.90;;;;;;5093611;28;20123;-60
2022/08/10 00:52:23;;;;;;;1999.90;999.90;;;15.20;99.90;;;;;;5075676;28;20095;-60
2022/08/10 00:54:49;;;;;;;1999.90;999.90;;;15.20;99.90;;;;;;5093059;28;20032;-60
2022/08/10 00:57:15;;;;;;;1999.90;999.90;;;15.20;99.90;;;;;;5094021;28;20067;-60
2022/08/10 00:59:42;;;;;;;1999.90;999.90;;;15.20;99.90;;;;;;5075348;28;20101;-60
2022/08/10 01:02:08;;;;;;;1999.90;999.90;;;15.20;99.90;;;;;;5092549;28;20052;-60
2022/08/10 01:04:34;;;;;;;1999.90;999.90;;;15.20;99.90;;;;;;5073521;28;20048;-60
2022/08/10 01:07:15;;;;;;;1999.90;999.90;;;15.10;99.90;;;;;;5073541;28;20437;-60
2022/08/10 01:09:50;;;;;;;1999.90;999.90;;;15.10;99.90;;;;;;5091874;28;20048;-60
2022/08/10 01:12:29;;;;;;;1999.90;999.90;;;15.10;99.90;;;;;;5075389;28;20040;-60
2022/08/10 01:15:10;;;;;;;1999.90;999.90;;;15.20;99.90;;;;;;5089692;28;20429;-60
2022/08/10 01:17:45;;;;;;;1999.90;999.90;;;15.20;99.90;;;;;;5080298;28;20076;-60
2022/08/10 01:20:31;;;;;;;1999.90;999.90;;;15.20;99.90;;;;;;5054720;28;20048;-60
2022/08/10 01:23:24;;;;;;;1999.90;999.90;;;15.20;99.90;;;;;;5072291;28;20052;-60
2022/08/10 01:26:19;;;;;;;1999.90;999.90;;;15.20;99.90;;;;;;5072640;28;20033;-60
2022/08/10 01:29:27;;;;;;;1999.90;999.90;;;15.20;99.90;;;;;;5072428;28;20080;-60
2022/08/10 01:31:58;;;;;;;1999.90;999.90;;;15.10;99.90;;;;;;5072567;28;20452;-60
2022/08/10 01:34:31;;;;;;;1999.90;999.90;;;15.10;99.90;;;;;;5076628;28;20074;-60
2022/08/10 01:37:03;;;;;;;1999.90;999.90;;;15.10;99.90;;;;;;5092447;28;20443;-60
2022/08/10 01:39:36;;;;;;;1999.90;999.90;;;15.00;99.90;;;;;;5093188;28;20074;-60
2022/08/10 01:42:03;;;;;;;1999.90;999.90;;;15.00;99.90;;;;;;5073006;28;20068;-60
2022/08/10 01:44:37;;;;;;;1999.90;999.90;;;14.90;99.90;;;;;;5068172;28;20040;-60
2022/08/10 01:50:00;;;;;;;1999.90;999.90;;;14.90;99.90;;;;;;5092269;28;20079;-60
2022/08/10 01:52:27;;;;;;;1999.90;999.90;;;14.90;99.90;;;;;;5092591;28;20044;-59
2022/08/10 01:54:55;;;;;;;1999.90;999.90;;;14.90;99.90;;;;;;5092964;28;20043;-60
2022/08/10 01:57:22;;;;;;;1999.90;999.90;;;14.90;99.90;;;;;;5074106;28;20051;-60
2022/08/10 01:59:55;;;;;;;1999.90;999.90;;;15.00;99.90;;;;;;5092866;28;20398;-60
2022/08/10 02:02:22;;;;;;;1999.90;999.90;;;15.00;99.90;;;;;;5090274;28;20081;-60
2022/08/10 02:04:51;;;;;;;1999.90;999.90;;;14.90;99.90;;;;;;5050526;28;20053;-60
2022/08/10 02:07:23;;;;;;;1999.90;999.90;;;14.90;99.90;;;;;;5052586;28;20513;-60
2022/08/10 02:09:52;;;;;;;1999.90;999.90;;;14.90;99.90;;;;;;5060435;28;20096;-60
2022/08/10 02:12:28;;;;;;;1999.90;999.90;;;14.90;99.90;;;;;;5092140;28;20050;-60
2022/08/10 02:14:59;;;;;;;1999.90;999.90;;;15.00;99.90;;;;;;5078175;28;20453;-60
2022/08/10 02:17:33;;;;;;;1999.90;999.90;;;15.00;99.90;;;;;;5074157;28;20431;-60
2022/08/10 02:20:03;;;;;;;1999.90;999.90;;;15.00;99.90;;;;;;5074031;28;20051;-60
2022/08/10 02:22:29;;;;;;;1999.90;999.90;;;15.00;99.90;;;;;;5092735;28;20090;-60
2022/08/10 02:24:57;;;;;;;1999.90;999.90;;;14.90;99.90;;;;;;5091612;28;20044;-60
2022/08/10 02:27:25;;;;;;;1999.90;999.90;;;14.90;99.90;;;;;;5092326;28;20090;-60
2022/08/10 02:29:53;;;;;;;1999.90;999.90;;;14.80;99.90;;;;;;5092917;28;20048;-60
2022/08/10 02:32:22;;;;;;;1999.90;999.90;;;14.80;99.90;;;;;;5095500;28;20478;-60
2022/08/10 02:34:50;;;;;;;1999.90;999.90;;;14.80;99.90;;;;;;5078416;28;20062;-60
2022/08/10 02:37:17;;;;;;;1999.90;999.90;;;14.80;99.90;;;;;;5096166;28;20047;-60
2022/08/10 02:39:43;;;;;;;1999.90;999.90;;;14.80;99.90;;;;;;5095351;28;20044;-60
2022/08/10 02:42:22;;;;;;;1999.90;999.90;;;14.80;99.90;;;;;;5075714;28;20055;-60
2022/08/10 02:44:55;;;;;;;1999.90;999.90;;;14.80;99.90;;;;;;5076710;28;20051;-60
2022/08/10 02:47:34;;;;;;;1999.90;999.90;;;14.80;99.90;;;;;;5095700;28;20055;-60
2022/08/10 02:50:08;;;;;;;1999.90;999.90;;;14.70;99.90;;;;;;5096431;28;20044;-60
2022/08/10 02:52:42;;;;;;;1999.90;999.90;;;14.70;99.90;;;;;;5095758;28;20048;-60
2022/08/10 02:55:21;;;;;;;1999.90;999.90;;;14.70;99.90;;;;;;5095917;28;20127;-60
2022/08/10 02:57:56;;;;;;;1999.90;999.90;;;14.70;99.90;;;;;;5096456;28;20052;-60
2022/08/10 03:00:23;;;;;;;1999.90;999.90;;;14.70;99.90;;;;;;5095195;28;20100;-60
2022/08/10 03:02:51;;;;;;;1999.90;999.90;;;14.70;99.90;;;;;;5075121;28;20570;-60
2022/08/10 03:05:19;;;;;;;1999.90;999.90;;;14.70;99.90;;;;;;5061545;28;20105;-60
2022/08/10 03:07:51;;;;;;;1999.90;999.90;;;14.70;99.90;;;;;;5054826;28;20053;-60
2022/08/10 03:10:22;;;;;;;1999.90;999.90;;;14.70;99.90;;;;;;5055802;28;20456;-60
2022/08/10 03:12:52;;;;;;;1999.90;999.90;;;14.70;99.90;;;;;;5071794;28;20175;-60
2022/08/10 03:15:19;;;;;;;1999.90;999.90;;;14.70;99.90;;;;;;5074421;28;20079;-60
2022/08/10 03:17:46;;;;;;;1999.90;999.90;;;14.60;99.90;;;;;;5080398;28;20362;-60
2022/08/10 03:20:13;;;;;;;1999.90;999.90;;;14.60;99.90;;;;;;5076481;28;20125;-60
2022/08/10 03:22:41;;;;;;;1999.90;999.90;;;14.60;99.90;;;;;;5074573;28;20496;-60
2022/08/10 03:25:10;;;;;;;1999.90;999.90;;;14.60;99.90;;;;;;5073574;28;20053;-60
2022/08/10 03:27:39;;;;;;;1999.90;999.90;;;14.60;99.90;;;;;;5075647;28;20052;-60
2022/08/10 03:30:06;;;;;;;1999.90;999.90;;;14.60;99.90;;;;;;5083137;28;20040;-60
2022/08/10 03:32:33;;;;;;;1999.90;999.90;;;14.60;99.90;;;;;;5077568;28;20066;-60
2022/08/10 03:34:59;;;;;;;1999.90;999.90;;;14.60;99.90;;;;;;5076957;28;20040;-60
2022/08/10 03:37:27;;;;;;;1999.90;999.90;;;14.50;99.90;;;;;;5077135;28;20044;-60
2022/08/10 03:39:53;;;;;;;1999.90;999.90;;;14.60;99.90;;;;;;5074971;28;20058;-60
2022/08/10 03:42:21;;;;;;;1999.90;999.90;;;14.50;99.90;;;;;;5072966;28;20056;-60
2022/08/10 03:44:48;;;;;;;1999.90;999.90;;;14.50;99.90;;;;;;5056967;28;20136;-60
2022/08/10 03:47:16;;;;;;;1999.90;999.90;;;14.60;99.90;;;;;;5079735;28;20040;-60
2022/08/10 03:49:42;;;;;;;1999.90;999.90;;;14.50;99.90;;;;;;5094639;28;20052;-60
2022/08/10 03:52:09;;;;;;;1999.90;999.90;;;14.50;99.90;;;;;;5094925;28;20460;-60
2022/08/10 03:54:35;;;;;;;1999.90;999.90;;;14.50;99.90;;;;;;5095207;28;20048;-60
2022/08/10 03:57:01;;;;;;;1999.90;999.90;;;14.60;99.90;;;;;;5090961;28;20055;-60
2022/08/10 03:59:30;;;;;;;1999.90;999.90;;;14.60;99.90;;;;;;5094892;28;20072;-60
2022/08/10 04:01:56;;;;;;;1999.90;999.90;;;14.60;99.90;;;;;;5095014;28;20052;-60
2022/08/10 04:04:22;;;;;;;1999.90;999.90;;;14.70;99.90;;;;;;5075240;28;20502;-60
2022/08/10 04:06:49;;;;;;;1999.90;999.90;;;14.70;99.90;;;;;;5094758;28;20044;-60
2022/08/10 04:09:15;;;;;;;1999.90;999.90;;;14.70;99.90;;;;;;5095014;28;20076;-60
2022/08/10 04:11:41;;;;;;;1999.90;999.90;;;14.70;99.90;;;;;;5082501;28;20478;-60
2022/08/10 04:14:07;;;;;;;1999.90;999.90;;;14.80;99.90;;;;;;5081183;28;20637;-60
2022/08/10 04:16:33;;;;;;;1999.90;999.90;;;14.80;99.90;;;;;;5094905;28;20044;-60
2022/08/10 04:18:59;;;;;;;1999.90;999.90;;;14.80;99.90;;;;;;5060610;28;20060;-60
2022/08/10 04:21:33;;;;;;;1999.90;999.90;;;14.90;99.90;;;;;;5073751;28;20048;-60
2022/08/10 04:24:01;;;;;;;1999.90;999.90;;;15.00;99.90;;;;;;5090389;28;20119;-60
2022/08/10 04:26:27;;;;;;;1999.90;999.90;;;15.00;99.90;;;;;;5080664;28;20093;-60
2022/08/10 04:28:53;;;;;;;1999.90;999.90;;;15.00;99.90;;;;;;5055933;28;20131;-60
2022/08/10 04:31:21;;;;;;;1999.90;999.90;;;15.10;99.90;;;;;;5055192;28;20484;-60
2022/08/10 04:33:49;;;;;;;1999.90;999.90;;;15.00;99.90;;;;;;5074345;28;20048;-60
2022/08/10 04:36:17;;;;;;;1999.90;999.90;;;15.00;99.90;;;;;;5073928;28;20487;-60
2022/08/10 04:38:45;;;;;;;1999.90;999.90;;;15.10;99.90;;;;;;5055543;28;20057;-60
2022/08/10 04:41:12;;;;;;;1999.90;999.90;;;15.10;99.90;;;;;;5067316;28;20159;-60
2022/08/10 04:43:38;;;;;;;1999.90;999.90;;;15.10;99.90;;;;;;5093971;28;20040;-60
2022/08/10 04:46:03;;;;;;;1999.90;999.90;;;15.10;99.90;;;;;;5079621;28;20047;-60
2022/08/10 04:48:29;;;;;;;1999.90;999.90;;;15.10;99.90;;;;;;5073813;28;20080;-60
2022/08/10 04:50:55;;;;;;;1999.90;999.90;;;15.10;99.90;;;;;;5092629;28;20117;-60
2022/08/10 04:53:21;;;;;;;1999.90;999.90;;;15.20;99.90;;;;;;5093220;28;20482;-60
2022/08/10 04:55:47;;;;;;;1999.90;999.90;;;15.30;99.90;;;;;;5094090;28;20055;-60
2022/08/10 04:58:13;;;;;;;1999.90;999.90;;;15.30;99.90;;;;;;5093142;28;20040;-60
2022/08/10 05:00:39;;;;;;;1999.90;999.90;;;15.30;99.90;;;;;;5093189;28;20406;-60
2022/08/10 05:03:05;;;;;;;1999.90;999.90;;;15.40;99.90;;;;;;5085627;28;20502;-60
2022/08/10 05:05:30;;;;;;;1999.90;999.90;;;15.50;99.90;;;;;;5073577;28;20048;-60
2022/08/10 05:07:56;;;;;;;1999.90;999.90;;;15.60;99.90;;;;;;5086188;28;20039;-60
2022/08/10 05:10:22;;;;;;;1999.90;999.90;;;15.60;99.90;;;;;;5081638;28;20036;-60
2022/08/10 05:12:48;;;;;;;1999.90;999.90;;;15.60;99.90;;;;;;5073541;28;20475;-60
2022/08/10 05:15:16;;;;;;;1999.90;999.90;;;15.70;99.90;;;;;;5054675;28;20113;-60
2022/08/10 05:17:43;;;;;;;1999.90;999.90;;;15.80;99.90;;;;;;5089112;28;20112;-60
2022/08/10 05:20:10;;;;;;;1999.90;999.90;;;15.90;99.90;;;;;;5073152;28;20049;-60
2022/08/10 05:22:39;;;;;;;1999.90;999.90;;;15.90;99.90;;;;;;5071812;28;20180;-60
2022/08/10 05:25:06;;;;;;;1999.90;999.90;;;16.10;99.90;;;;;;5055121;28;20054;-60
2022/08/10 05:27:33;;;;;;;1999.90;999.90;;;16.20;99.90;;;;;;5072414;28;20170;-60
2022/08/10 05:29:59;;;;;;;1999.90;999.90;;;16.30;99.90;;;;;;5072931;28;20041;-60
2022/08/10 05:32:25;;;;;;;1999.90;999.90;;;16.40;99.90;;;;;;5055133;28;20067;-60
2022/08/10 05:34:50;;;;;;;1999.90;999.90;;;16.60;99.90;;;;;;5085441;28;20037;-60
2022/08/10 05:37:18;;;;;;;1999.90;999.90;;;16.70;99.90;;;;;;5072501;28;20048;-60
2022/08/10 05:39:45;;;;;;;1999.90;999.90;;;16.80;99.90;;;;;;5072993;28;20047;-60
2022/08/10 05:42:11;;;;;;;1999.90;999.90;;;17.00;99.90;;;;;;5075690;28;20493;-60
2022/08/10 05:44:37;;;;;;;1999.90;999.90;;;17.10;99.90;;;;;;5074714;28;20490;-60
2022/08/10 05:47:04;;;;;;;1999.90;999.90;;;17.30;99.90;;;;;;5074911;28;20432;-60
2022/08/10 05:49:30;;;;;;;1999.90;999.90;;;17.40;99.90;;;;;;5092265;28;20056;-60
2022/08/10 05:51:56;;;;;;;1999.90;999.90;;;17.50;99.90;;;;;;5092243;28;20132;-60
2022/08/10 05:54:24;;;;;;;1999.90;999.90;;;17.60;99.90;;;;;;5093147;28;20046;-60
2022/08/10 05:56:50;;;;;;;1999.90;999.90;;;17.70;99.90;;;;;;5092418;28;20040;-60
2022/08/10 05:59:16;;;;;;;1999.90;999.90;;;17.80;99.90;;;;;;5092804;28;20048;-60
2022/08/10 06:01:44;;;;;;;1999.90;999.90;;;17.90;99.90;;;;;;5092241;28;20394;-60
2022/08/10 06:04:14;;;;;;;1999.90;999.90;;;18.00;99.90;;;;;;5075200;28;20098;-60
2022/08/10 06:06:44;;;;;;;1999.90;999.90;;;18.00;99.90;;;;;;5072167;28;20080;-60
2022/08/10 06:09:11;;;;;;;1999.90;999.90;;;18.10;99.90;;;;;;5080250;28;20122;-60
2022/08/10 06:11:37;;;;;;;1999.90;999.90;;;18.20;99.90;;;;;;5092127;28;20063;-60
2022/08/10 06:16:50;;;;;;;1999.90;999.90;;;18.50;99.90;;;;;;5068287;28;20080;-60
2022/08/10 06:19:17;;;;;;;1999.90;999.90;;;18.60;99.90;;;;;;5072448;28;20036;-60
2022/08/10 06:21:43;;;;;;;1999.90;999.90;;;18.70;99.90;;;;;;5053264;28;20114;-60
2022/08/10 06:24:10;;;;;;;1999.90;999.90;;;18.80;99.90;;;;;;5070893;28;20446;-60
2022/08/10 06:26:36;;;;;;;1999.90;999.90;;;18.90;99.90;;;;;;5077789;28;20039;-60
2022/08/10 06:29:21;;;;;;;1999.90;999.90;;;19.00;99.90;;;;;;5074212;28;20475;-60
2022/08/10 06:31:49;;;;;;;1999.90;999.90;;;19.10;99.90;;;;;;5092046;28;20044;-60
2022/08/10 06:34:21;;;;;;;1999.90;999.90;;;19.20;99.90;;;;;;5092575;28;20048;-60
2022/08/10 06:36:47;;;;;;;1999.90;999.90;;;19.30;99.90;;;;;;5057356;28;20055;-60
2022/08/10 06:39:14;;;;;;;1999.90;999.90;;;19.40;99.90;;;;;;5071750;28;20052;-60
2022/08/10 06:41:46;;;;;;;1999.90;999.90;;;19.50;99.90;;;;;;5071614;28;20491;-60
2022/08/10 06:44:15;;;;;;;;;;;19.60;99.90;;;;;;5077662;28;20048;-60
2022/08/10 06:46:46;;;;;;;1999.90;999.90;;;19.70;99.90;;;;;;5073654;28;19927;-60
2022/08/10 06:49:14;;;;;;;1999.90;999.90;;;19.70;99.90;;;;;;5092330;28;20485;-60
2022/08/10 06:51:43;;;;;;;1999.90;999.90;;;19.80;99.90;;;;;;5092619;28;20040;-60
2022/08/10 06:54:11;;;;;;;1999.90;999.90;;;19.90;99.90;;;;;;5089211;28;20073;-60
2022/08/10 06:56:41;;;;;;;1999.90;999.90;;;20.00;99.90;;;;;;5071595;28;20036;-60
2022/08/10 06:59:16;;;;;;;1999.90;999.90;;;20.10;99.90;;;;;;5053063;28;20059;-60
2022/08/10 07:01:43;;;;;;;1999.90;999.90;;;20.10;99.90;;;;;;5057105;28;20044;-60
2022/08/10 07:04:14;;;;;;;1999.90;999.90;;;20.20;99.90;;;;;;5075168;28;20405;-60
2022/08/10 07:06:44;;;;;;;1999.90;999.90;;;20.30;99.90;;;;;;5052490;28;20048;-60
2022/08/10 07:09:13;;;;;;;1999.90;999.90;;;20.40;99.90;;;;;;5068534;28;20037;-60
2022/08/10 07:11:42;;;;;;;1999.90;999.90;;;20.40;99.90;;;;;;5071245;28;20045;-61
2022/08/10 07:14:11;;;;;;;1999.90;999.90;;;20.50;99.90;;;;;;5068962;28;20048;-60
2022/08/10 07:16:38;;;;;;;1999.90;999.90;;;20.60;99.90;;;;;;5053768;28;20044;-60
2022/08/10 07:19:07;;;;;;;1999.90;999.90;;;20.70;99.90;;;;;;5068442;28;20148;-60
2022/08/10 07:21:34;;;;;;;1999.90;999.90;;;20.90;99.90;;;;;;5094978;28;20126;-60
2022/08/10 07:24:02;;;;;;;1999.90;999.90;;;21.00;99.90;;;;;;5081781;28;20056;-59
2022/08/10 07:26:29;;;;;;;1999.90;999.90;;;21.20;99.90;;;;;;5067811;28;20044;-60
2022/08/10 07:28:56;;;;;;;1999.90;999.90;;;21.30;99.90;;;;;;5083004;28;20044;-60
2022/08/10 07:31:23;;;;;;;1999.90;999.90;;;21.40;99.90;;;;;;5093039;28;20517;-61
2022/08/10 07:33:52;;;;;;;1999.90;999.90;;;21.60;99.90;;;;;;5074582;28;20064;-60
2022/08/10 07:36:21;;;;;;;1999.90;999.90;;;21.70;99.90;;;;;;5074077;28;20510;-60
2022/08/10 07:38:50;;;;;;;1999.90;999.90;;;21.70;99.90;;;;;;5056164;28;20060;-60
2022/08/10 07:41:18;;;;;;;1999.90;999.90;;;21.80;99.90;;;;;;5070414;28;20072;-60
2022/08/10 07:43:46;;;;;;;1999.90;999.90;;;21.80;99.90;;;;;;5074664;28;20406;-60
2022/08/10 07:46:14;;;;;;;1999.90;999.90;;;22.00;99.90;;;;;;5058908;28;20044;-61
2022/08/10 07:48:46;;;;;;;1999.90;999.90;;;22.20;99.90;;;;;;5073280;28;20052;-60
2022/08/10 07:51:12;;;;;;;1999.90;999.90;;;22.30;99.90;;;;;;5074522;28;20047;-60
2022/08/10 07:53:45;;;;;;;1999.90;999.90;;;22.30;99.90;;;;;;5074266;28;20398;-61
2022/08/10 07:56:12;;;;;;;1999.90;999.90;;;22.40;99.90;;;;;;5074199;28;20075;-60
2022/08/10 07:58:49;;;;;;;1999.90;999.90;;;22.40;99.90;;;;;;5057016;28;20072;-61
2022/08/10 08:01:16;;;;;;;1999.90;999.90;;;22.50;99.90;;;;;;5074728;28;20044;-61
2022/08/10 08:03:44;;;;;;;1999.90;999.90;;;22.60;99.90;;;;;;5065009;28;20049;-61
2022/08/10 08:06:12;;;;;;;1999.90;999.90;;;22.70;99.90;;;;;;5074554;28;20044;-60
2022/08/10 08:08:40;;;;;;;1999.90;999.90;;;22.80;99.90;;;;;;5074625;28;20483;-61
2022/08/10 08:11:07;;;;;;;1999.90;999.90;;;22.90;99.90;;;;;;5073545;28;20097;-61
2022/08/10 08:13:34;;;;;;;1999.90;999.90;;;23.00;99.90;;;;;;5086625;28;20051;-61
2022/08/10 08:16:03;;;;;;;1999.90;999.90;;;23.10;99.90;;;;;;5094933;28;20052;-61
2022/08/10 08:18:31;;;;;;;1999.90;999.90;;;23.30;99.90;;;;;;5082669;28;20047;-61
2022/08/10 08:20:57;;;;;;;1999.90;999.90;;;23.40;99.90;;;;;;5074009;28;20045;-60
2022/08/10 08:23:26;;;;;;;1999.90;999.90;;;23.60;99.90;;;;;;5073723;28;20080;-60
2022/08/10 08:25:53;;;;;;;1999.90;999.90;;;23.70;99.90;;;;;;5077599;28;20069;-61
2022/08/10 08:28:20;;;;;;;1999.90;999.90;;;23.70;99.90;;;;;;5094223;28;20048;-61
2022/08/10 08:30:47;;;;;;;1999.90;999.90;;;23.80;99.90;;;;;;5087659;28;20160;-61
2022/08/10 08:33:15;;;;;;;1999.90;999.90;;;;;;;;;;5094267;28;20468;-61
2022/08/10 08:35:43;;;;;;;1999.90;999.90;;;23.90;99.90;;;;;;5074741;28;20406;-61
2022/08/10 08:38:10;;;;;;;1999.90;999.90;;;24.00;99.90;;;;;;5057382;28;20056;-60
2022/08/10 08:40:39;;;;;;;1999.90;999.90;;;24.10;99.90;;;;;;5085273;28;20056;-61
2022/08/10 08:43:35;;;;;;;1999.90;999.90;;;24.30;99.90;;;;;;5073983;28;20056;-61
2022/08/10 08:46:09;;;;;;;1999.90;999.90;;;24.50;99.90;;;;;;5047446;28;20093;-61
2022/08/10 08:48:48;;;;;;;1999.90;999.90;;;24.70;99.90;;;;;;5073604;28;20043;-61
2022/08/10 08:51:52;;;;;;;1999.90;999.90;;;24.80;99.90;;;;;;5073978;28;20200;-61
2022/08/10 08:54:45;;;;;;;1999.90;999.90;;;25.00;99.90;;;;;;5073693;28;20059;-61
2022/08/10 08:57:28;;;;;;;1999.90;999.90;;;25.00;99.90;;;;;;5073171;28;20048;-61
2022/08/10 09:00:08;;;;;;;1999.90;999.90;;;25.10;99.90;;;;;;5073014;28;20548;-61
2022/08/10 09:02:37;;;;;;;1999.90;999.90;;;25.20;99.90;;;;;;5071060;28;20044;-61
2022/08/10 09:05:32;;;;;;;1999.90;999.90;;;25.30;99.90;;;;;;5066303;28;20059;-61
2022/08/10 09:08:15;;;;;;;1999.90;999.90;;;25.30;99.90;;;;;;5053655;28;20052;-61
2022/08/10 09:10:56;;;;;;;1999.90;999.90;;;25.40;99.90;;;;;;5035188;28;20049;-61
2022/08/10 09:13:35;;;;;;;1999.90;999.90;;;25.40;99.90;;;;;;5052846;28;20052;-61
2022/08/10 09:16:12;;;;;;;1999.90;999.90;;;25.50;99.90;;;;;;5087495;28;20093;-60
2022/08/10 09:18:48;;;;;;;1999.90;999.90;;;25.50;99.90;;;;;;5093359;28;20044;-61
2022/08/10 09:21:25;;;;;;;1999.90;999.90;;;25.50;99.90;;;;;;5092631;28;20047;-61
2022/08/10 09:24:05;;;;;;;1999.90;999.90;;;25.60;99.90;;;;;;5092956;28;20398;-61
2022/08/10 09:26:47;;;;;;;1999.90;999.90;;;25.70;99.60;;;;;;5092498;28;20375;-61
2022/08/10 09:29:23;;;;;;;1999.90;999.90;;;25.70;98.50;;;;;;5075448;28;20044;-61
2022/08/10 09:32:07;;;;;;;1999.90;999.90;;;25.80;99.60;;;;;;5092829;28;20046;-60
2022/08/10 09:34:53;;;;;;;1999.90;999.90;;;25.90;98.50;;;;;;5074384;28;20536;-61
2022/08/10 09:37:22;;;;;;;1999.90;999.90;;;26.20;99.20;;;;;;5093098;28;20048;-61
2022/08/10 09:39:58;;;;;;;1999.90;999.90;;;26.20;99.20;;;;;;5076410;28;20056;-61
2022/08/10 09:42:38;;;;;;;1999.90;999.90;;;26.40;98.90;;;;;;5087393;28;20063;-61
2022/08/10 09:45:22;;;;;;;1999.90;999.90;;;26.60;98.60;;;;;;5081504;28;20087;-61
2022/08/10 09:48:09;;;;;;;1999.90;999.90;;;26.90;98.60;;;;;;5071752;28;20127;-61
2022/08/10 09:50:53;;;;;;;1999.90;999.90;;;27.10;97.80;;;;;;5064664;28;20075;-61
2022/08/10 09:53:23;;;;;;;1999.90;999.90;;;27.30;97.40;;;;;;5092827;28;20040;-61
2022/08/10 09:56:25;;;;;;;1999.90;999.90;;;27.30;97.30;;;;;;5091981;28;20048;-61
2022/08/10 09:59:02;;;;;;;1999.90;999.90;;;;;;;;;;5083448;28;20708;-61
2022/08/10 10:01:42;;;;;;;1999.90;999.90;;;27.40;96.10;;;;;;5071956;28;20074;-61
2022/08/10 10:04:37;;;;;;;1999.90;999.90;;;27.30;96.80;;;;;;5070983;28;20532;-61
2022/08/10 10:07:07;;;;;;;1999.90;999.90;;;27.40;96.40;;;;;;5071058;28;20064;-61
2022/08/10 10:09:42;;;;;;;1999.90;999.90;;;27.40;95.70;;;;;;5050904;28;20394;-61
2022/08/10 10:12:52;;;;;;;1999.90;999.90;;;27.30;95.70;;;;;;5054413;28;20446;-61
2022/08/10 10:15:31;;;;;;;1999.90;999.90;;;27.40;95.90;;;;;;5072783;28;20394;-61
2022/08/10 10:18:21;;;;;;;1999.90;999.90;;;27.60;95.50;;;;;;5088077;28;20048;-61
2022/08/10 10:21:10;;;;;;;1999.90;999.90;;;27.60;95.10;;;;;;5087545;28;20055;-61
2022/08/10 10:23:57;;;;;;;1999.90;999.90;;;27.60;94.50;;;;;;5071795;28;20101;-61
2022/08/10 10:26:40;;;;;;;1999.90;999.90;;;27.70;94.20;;;;;;5067741;28;20122;-61
2022/08/10 10:29:29;;;;;;;1999.90;999.90;;;27.90;93.50;;;;;;5092788;28;20052;-61
2022/08/10 10:32:07;;;;;;;1999.90;999.90;;;28.20;92.50;;;;;;5091588;28;20040;-61
2022/08/10 10:34:44;;;;;;;1999.90;999.90;;;28.70;92.40;;;;;;5092104;28;20036;-61
2022/08/10 10:37:12;;;;;;;1999.90;999.90;;;29.90;88.50;;;;;;5091741;28;20048;-61
2022/08/10 10:39:43;;;;;;;1999.90;999.90;;;30.10;85.10;;;;;;5078236;28;20391;-61
2022/08/10 10:42:46;;;;;;;1999.90;999.90;;;30.30;83.10;;;;;;5052004;28;20060;-61
2022/08/10 10:45:21;;;;;;;1999.90;999.90;;;30.80;81.00;;;;;;5051642;28;20102;-61
2022/08/10 10:48:05;;;;;;;1999.90;999.90;;;31.40;79.80;;;;;;5051771;28;20402;-61
2022/08/10 10:51:15;;;;;;;1999.90;999.90;;;31.70;77.50;;;;;;5052392;28;20061;-61
2022/08/10 10:53:58;;;;;;;1999.90;999.90;;;32.10;71.00;;;;;;5094873;28;20387;-61
2022/08/10 10:56:35;;;;;;;1999.90;999.90;;;32.30;70.70;;;;;;5096448;28;20080;-61
2022/08/10 10:59:06;;;;;;;1999.90;999.90;;;;;;;;;;5095719;28;20063;-61
2022/08/10 11:01:41;;;;;;;1999.90;999.90;;;32.90;67.70;;;;;;5083793;28;20101;-61
2022/08/10 11:04:21;;;;;;;1999.90;999.90;;;33.20;64.30;;;;;;5074408;28;20067;-61
2022/08/10 11:07:03;;;;;;;1999.90;999.90;;;33.30;63.10;;;;;;5074987;28;20395;-61
2022/08/10 11:09:40;;;;;;;1999.90;999.90;;;33.40;61.90;;;;;;5079342;28;20449;-61
2022/08/10 11:12:20;;;;;;;1999.90;999.90;;;33.50;62.60;;;;;;5095171;28;20470;-61
2022/08/10 11:15:11;;;;;;;1999.90;999.90;;;33.60;64.00;;;;;;5095872;28;20046;-61
2022/08/10 11:18:02;;;;;;;1999.90;999.90;;;33.80;62.90;;;;;;5095746;28;20059;-62
2022/08/10 11:20:59;;;;;;;1999.90;999.90;;;34.10;64.10;;;;;;5054988;28;20041;-61
2022/08/10 11:23:44;;;;;;;1999.90;999.90;;;34.90;61.30;;;;;;5055456;28;20510;-61
2022/08/10 11:26:16;;;;;;;1999.90;999.90;;;35.00;60.40;;;;;;5074745;28;20040;-61
2022/08/10 11:28:48;;;;;;;;;;;35.10;57.70;;;;;;5074090;28;20132;-61
2022/08/10 11:31:14;;;;;;;1999.90;999.90;;;35.20;58.70;;;;;;5095477;28;19920;-61
2022/08/10 11:33:46;;;;;;;1999.90;999.90;;;35.20;56.00;;;;;;5094948;28;20386;-61
2022/08/10 11:36:33;;;;;;;1999.90;999.90;;;35.30;55.60;;;;;;5071474;28;20060;-61
2022/08/10 11:39:14;;;;;;;1999.90;999.90;;;35.50;56.30;;;;;;5082537;28;20048;-62
2022/08/10 11:41:50;;;;;;;1999.90;999.90;;;35.60;55.00;;;;;;5072461;28;20049;-61
2022/08/10 11:44:20;;;;;;;1999.90;999.90;;;35.60;54.10;;;;;;5074738;28;20535;-61
2022/08/10 11:47:01;;;;;;;1999.90;999.90;;;35.60;54.10;;;;;;5075414;28;20040;-61
2022/08/10 11:49:40;;;;;;;1999.90;999.90;;;35.80;53.60;;;;;;5074331;28;20051;-61
2022/08/10 11:52:09;;;;;;;1999.90;999.90;;;;;;;;;;5056813;28;20518;-61
2022/08/10 11:54:42;;;;;;;1999.90;999.90;;;36.20;52.10;;;;;;5073781;28;20090;-61
2022/08/10 11:57:10;;;;;;;1999.90;999.90;;;36.20;51.80;;;;;;5074736;28;20056;-61
2022/08/10 11:59:56;;;;;;;1999.90;999.90;;;36.30;51.50;;;;;;5071968;28;20380;-61
2022/08/10 12:02:28;;;;;;;1999.90;999.90;;;36.40;51.20;;;;;;5037980;28;20055;-61
2022/08/10 12:05:02;;;;;;;1999.90;999.90;;;36.60;50.80;;;;;;5056143;28;20045;-61
2022/08/10 12:07:30;;;;;;;1999.90;999.90;;;36.60;50.70;;;;;;5074106;28;20446;-62
2022/08/10 12:09:57;;;;;;;1999.90;999.90;;;36.50;50.70;;;;;;5073338;28;20501;-61
2022/08/10 12:12:25;;;;;;;1999.90;999.90;;;36.60;50.90;;;;;;5073673;28;20509;-61
2022/08/10 12:15:00;;;;;;;1999.90;999.90;;;36.80;50.50;;;;;;5073599;28;20047;-61
2022/08/10 12:17:32;;;;;;;1999.90;999.90;;;37.00;51.10;;;;;;5069240;28;20041;-61
2022/08/10 12:20:08;;;;;;;1999.90;999.90;;;36.90;51.00;;;;;;5069430;28;20040;-61
2022/08/10 12:22:48;;;;;;;1999.90;999.90;;;37.00;52.40;;;;;;5064142;28;20410;-61
2022/08/10 12:25:20;;;;;;;1999.90;999.90;;;36.30;52.60;;;;;;5068742;28;20093;-61
2022/08/10 12:27:51;;;;;;;1999.90;999.90;;;36.40;52.10;;;;;;5073321;28;20485;-61
2022/08/10 12:30:25;;;;;;;1999.90;999.90;;;36.60;51.90;;;;;;5072745;28;20040;-61